Time;durP1;ratioP1;P1;durP2;ratioP2;P2;SDS_P1;SDS_P2;PMS_P1;PMS_P2;Temp;Humidity;BMP_temperature;BMP_pressure;BME280_temperature;BME280_humidity;BME280_pressure;Samples;Min_cycle;Max_cycle;Signal;HPM_P1;HPM_P2
2021/11/19 00:01:26;;;;;;;46.65;29.02;;;;;;;4.62;96.89;99915.27;1670370;85;21216;-72
2021/11/19 00:03:52;;;;;;;47.53;29.45;;;;;;;4.64;96.89;99907.90;1670691;85;21031;-84
2021/11/19 00:06:19;;;;;;;47.83;30.02;;;;;;;4.67;96.75;99901.33;1670548;85;20964;-82
2021/11/19 00:08:47;;;;;;;41.50;28.00;;;;;;;4.65;96.60;99896.20;1670642;85;21520;-82
2021/11/19 00:11:20;;;;;;;55.98;32.03;;;;;;;4.66;96.50;99902.34;1626189;86;21079;-76
2021/11/19 00:13:47;;;;;;;42.38;26.10;;;;;;;4.66;96.45;99891.69;1670912;85;21104;-78
2021/11/19 00:16:14;;;;;;;47.23;30.15;;;;;;;4.66;96.39;99901.02;1648328;85;20963;-76
2021/11/19 00:18:41;;;;;;;57.73;32.98;;;;;;;4.66;96.36;99890.36;1649434;85;20991;-84
2021/11/19 00:21:08;;;;;;;49.45;29.52;;;;;;;4.64;96.29;99887.10;1649949;85;21026;-83
2021/11/19 00:23:35;;;;;;;53.35;28.80;;;;;;;4.60;96.26;99881.38;1673506;85;20975;-77
2021/11/19 00:26:01;;;;;;;38.00;27.02;;;;;;;4.57;96.27;99881.77;1649473;85;21071;-82
2021/11/19 00:28:27;;;;;;;38.83;25.57;;;;;;;4.55;96.38;99885.67;1671268;85;21596;-85
2021/11/19 00:30:55;;;;;;;50.38;32.35;;;;;;;4.54;96.52;99884.03;1647249;85;21062;-74
2021/11/19 00:33:22;;;;;;;46.75;27.50;;;;;;;4.54;96.65;99888.84;1648677;85;21023;-73
2021/11/19 00:35:50;;;;;;;42.90;27.65;;;;;;;4.58;96.70;99875.42;1649354;85;21516;-80
2021/11/19 00:38:18;;;;;;;45.90;29.10;;;;;;;4.60;96.50;99873.89;1672096;85;21280;-78
2021/11/19 00:40:50;;;;;;;46.33;27.67;;;;;;;4.57;96.35;99875.62;1647223;85;21088;-85
2021/11/19 00:43:16;;;;;;;43.98;28.42;;;;;;;4.53;96.31;99872.55;1626494;85;20999;-76
2021/11/19 00:45:44;;;;;;;42.85;27.15;;;;;;;4.51;96.44;99865.81;1672044;85;21066;-75
2021/11/19 00:48:12;;;;;;;45.30;26.23;;;;;;;4.49;96.64;99865.19;1648020;85;21519;-74
2021/11/19 00:50:44;;;;;;;46.90;29.42;;;;;;;4.47;96.81;99862.72;1647085;85;21809;-80
2021/11/19 00:53:11;;;;;;;42.60;29.47;;;;;;;4.48;97.02;99860.37;1669784;85;21003;-76
2021/11/19 00:55:38;;;;;;;45.45;27.13;;;;;;;4.50;97.10;99860.99;1670765;85;21023;-77
2021/11/19 00:58:04;;;;;;;40.55;26.33;;;;;;;4.51;97.03;99855.95;1676109;84;21015;-77
2021/11/19 01:00:37;;;;;;;46.05;27.00;;;;;;;4.53;96.96;99858.42;1680686;84;21137;-83
2021/11/19 01:03:04;;;;;;;41.37;25.80;;;;;;;4.51;96.96;99846.63;1678648;85;21030;-75
2021/11/19 01:05:31;;;;;;;35.28;23.12;;;;;;;4.52;96.92;99844.78;1652590;85;21011;-91
2021/11/19 01:07:57;;;;;;;42.27;29.23;;;;;;;4.52;96.96;99843.45;1652672;85;21093;-82
2021/11/19 01:10:27;;;;;;;41.90;25.80;;;;;;;4.54;97.00;99844.91;1682232;85;21011;-80
2021/11/19 01:12:55;;;;;;;41.88;26.25;;;;;;;4.56;96.96;99846.83;1691901;84;21066;-80
2021/11/19 01:15:33;;;;;;;37.33;24.92;;;;;;;4.54;96.87;99835.58;1684721;84;21099;-83
2021/11/19 01:18:13;;;;;;;41.10;24.77;;;;;;;4.54;96.86;99844.08;1646969;86;21113;-82
2021/11/19 01:20:48;;;;;;;38.55;26.33;;;;;;;4.53;96.93;99836.60;1632525;85;21106;-82
2021/11/19 01:23:17;;;;;;;39.00;23.35;;;;;;;4.53;97.15;99827.79;1680177;85;21105;-79
2021/11/19 01:25:51;;;;;;;40.25;25.32;;;;;;;4.57;97.16;99814.36;1682998;84;21263;-78
2021/11/19 01:28:21;;;;;;;45.20;26.93;;;;;;;4.57;97.16;99814.36;1663642;85;21178;-74
2021/11/19 01:30:57;;;;;;;44.70;25.50;;;;;;;4.58;97.14;99818.67;1652790;85;20986;-73
2021/11/19 01:33:25;;;;;;;36.30;25.77;;;;;;;4.58;97.04;99815.49;1653213;85;21002;-74
2021/11/19 01:35:56;;;;;;;40.50;25.37;;;;;;;4.58;97.01;99817.33;1653139;85;21600;-73
2021/11/19 01:38:28;;;;;;;36.35;23.85;;;;;;;4.56;96.98;99822.03;1676035;85;21050;-75
2021/11/19 01:41:05;;;;;;;31.65;23.00;;;;;;;4.54;97.10;99816.94;1679871;85;22211;-74
2021/11/19 01:43:34;;;;;;;40.00;25.12;;;;;;;4.57;97.14;99818.35;1653033;85;21133;-73
2021/11/19 01:46:05;;;;;;;36.75;21.48;;;;;;;4.56;97.09;99818.86;1652955;85;21036;-73
2021/11/19 01:48:39;;;;;;;38.65;22.17;;;;;;;4.58;97.06;99823.99;1680669;85;21057;-74
2021/11/19 01:51:22;;;;;;;44.03;22.67;;;;;;;4.58;96.90;99804.84;1654060;85;21043;-74
2021/11/19 01:54:13;;;;;;;34.08;24.10;;;;;;;4.54;96.78;99802.80;1652955;85;21284;-73
2021/11/19 01:56:46;;;;;;;29.45;19.90;;;;;;;4.54;96.78;99802.80;1679858;85;20964;-74
2021/11/19 01:59:33;;;;;;;30.67;20.00;;;;;;;4.51;96.66;99800.56;1652851;85;21062;-73
2021/11/19 02:02:14;;;;;;;26.57;19.65;;;;;;;4.53;96.63;99799.31;1653135;85;21125;-74
2021/11/19 02:04:46;;;;;;;32.03;22.15;;;;;;;4.54;96.65;99807.62;1653060;85;21054;-74
2021/11/19 02:07:22;;;;;;;40.60;23.22;;;;;;;4.57;96.54;99786.39;1680421;84;21068;-74
2021/11/19 02:10:20;;;;;;;32.48;22.13;;;;;;;4.57;96.20;99787.22;1641047;85;21033;-73
2021/11/19 02:13:32;;;;;;;31.95;20.95;;;;;;;4.56;96.14;99782.91;1653060;85;21014;-71
2021/11/19 02:16:16;;;;;;;38.10;22.55;;;;;;;4.57;96.09;99785.06;1680012;85;21040;-72
2021/11/19 02:19:01;;;;;;;;;;;;;;;4.59;95.98;99779.02;1654410;85;21102;-71
2021/11/19 02:21:42;;;;;;;28.75;18.57;;;;;;;4.61;95.89;99788.94;1652469;85;22121;-74
2021/11/19 02:24:42;;;;;;;32.53;21.85;;;;;;;4.61;95.82;99764.97;1630632;85;21057;-73
2021/11/19 02:27:29;;;;;;;33.63;19.95;;;;;;;4.63;95.70;99770.41;1630671;85;21122;-73
2021/11/19 02:30:06;;;;;;;33.38;20.50;;;;;;;4.62;95.38;99769.27;1681301;85;21086;-75
2021/11/19 02:32:39;;;;;;;31.33;21.80;;;;;;;4.62;95.38;99769.27;1647591;85;21067;-73
2021/11/19 02:35:10;;;;;;;26.35;18.57;;;;;;;4.65;95.15;99768.88;1651562;85;21806;-76
2021/11/19 02:37:42;;;;;;;29.48;20.27;;;;;;;4.65;94.94;99771.54;1679943;85;20963;-75
2021/11/19 02:40:15;;;;;;;32.05;20.32;;;;;;;4.65;94.86;99764.34;1679381;85;20967;-75
2021/11/19 02:42:50;;;;;;;32.83;20.80;;;;;;;4.65;94.66;99767.55;1651536;85;21089;-74
2021/11/19 02:45:28;;;;;;;33.85;21.75;;;;;;;4.62;94.47;99762.61;1677807;85;21547;-75
2021/11/19 02:47:55;;;;;;;30.75;22.20;;;;;;;4.57;94.36;99759.76;1664155;84;21917;-74
2021/11/19 02:50:24;;;;;;;30.08;21.73;;;;;;;4.56;94.44;99771.44;1680436;84;20990;-74
2021/11/19 02:52:55;;;;;;;26.12;18.92;;;;;;;4.54;94.45;99759.68;1681196;84;21011;-74
2021/11/19 02:55:26;;;;;;;31.62;19.17;;;;;;;4.55;94.41;99765.31;1709175;84;21079;-74
2021/11/19 02:57:53;;;;;;;26.55;18.87;;;;;;;4.55;94.41;99761.83;1682930;84;21161;-74
2021/11/19 03:00:24;;;;;;;24.67;18.27;;;;;;;4.54;94.32;99759.68;1679119;85;21057;-74
2021/11/19 03:02:51;;;;;;;25.60;19.27;;;;;;;4.52;94.24;99772.37;1652151;85;20967;-74
2021/11/19 03:05:20;;;;;;;22.25;16.23;;;;;;;4.48;94.19;99771.16;1651983;85;21022;-74
2021/11/19 03:07:46;;;;;;;23.95;19.10;;;;;;;4.47;94.26;99772.69;1681341;85;21815;-73
2021/11/19 03:10:33;;;;;;;31.30;18.12;;;;;;;4.46;94.36;99769.74;1680758;85;21611;-75
2021/11/19 03:13:02;;;;;;;28.32;19.30;;;;;;;4.44;94.49;99765.13;1651765;85;21078;-76
2021/11/19 03:15:31;;;;;;;25.80;18.82;;;;;;;4.37;94.53;99753.97;1678964;85;21014;-76
2021/11/19 03:17:58;;;;;;;32.70;20.27;;;;;;;4.37;94.66;99745.16;1652322;85;21508;-75
2021/11/19 03:20:25;;;;;;;31.05;20.02;;;;;;;4.34;94.67;99737.09;1679950;85;21090;-76
2021/11/19 03:22:52;;;;;;;29.70;19.20;;;;;;;4.33;94.71;99747.42;1680049;85;21086;-74
2021/11/19 03:25:24;;;;;;;25.15;18.20;;;;;;;4.32;94.74;99739.12;1679950;85;21467;-75
2021/11/19 03:27:53;;;;;;;25.57;18.87;;;;;;;4.31;95.05;99714.06;1652871;85;21526;-77
2021/11/19 03:30:23;;;;;;;27.65;17.67;;;;;;;4.31;95.05;99714.06;1679956;85;21102;-77
2021/11/19 03:32:50;;;;;;;27.67;19.57;;;;;;;4.29;95.05;99704.95;1653085;85;21113;-75
2021/11/19 03:35:17;;;;;;;32.33;21.50;;;;;;;4.31;94.98;99703.41;1680478;85;21014;-74
2021/11/19 03:37:46;;;;;;;22.70;17.10;;;;;;;4.27;94.87;99701.66;1652821;85;21172;-76
2021/11/19 03:40:19;;;;;;;33.13;21.87;;;;;;;4.26;94.92;99697.90;1652913;85;21042;-75
2021/11/19 03:42:46;;;;;;;22.75;16.93;;;;;;;4.24;94.92;99698.09;1680867;85;21049;-74
2021/11/19 03:45:16;;;;;;;25.75;18.42;;;;;;;4.21;95.04;99707.02;1654269;85;21018;-74
2021/11/19 03:47:49;;;;;;;27.67;18.02;;;;;;;4.21;95.17;99699.03;1681694;85;21018;-74
2021/11/19 03:50:27;;;;;;;24.95;17.32;;;;;;;4.19;95.30;99712.55;1653170;85;21099;-75
2021/11/19 03:52:53;;;;;;;28.17;18.15;;;;;;;4.17;95.33;99707.92;1679938;85;21164;-76
2021/11/19 03:55:25;;;;;;;27.10;18.48;;;;;;;4.15;95.40;99706.00;1652601;85;20971;-74
2021/11/19 03:57:51;;;;;;;27.13;18.45;;;;;;;4.14;95.41;99715.00;1680152;85;21114;-73
2021/11/19 04:00:35;;;;;;;27.05;17.23;;;;;;;4.11;95.68;99700.80;1652415;85;21046;-73
2021/11/19 04:03:03;;;;;;;26.97;18.42;;;;;;;4.12;95.57;99690.97;1652366;85;21092;-74
2021/11/19 04:05:32;;;;;;;30.35;20.30;;;;;;;4.14;95.52;99688.91;1679546;85;21017;-74
2021/11/19 04:07:59;;;;;;;28.50;18.98;;;;;;;4.14;95.52;99688.91;1680207;85;20979;-74
2021/11/19 04:10:27;;;;;;;20.35;17.50;;;;;;;4.14;95.39;99687.57;1675792;85;21123;-74
2021/11/19 04:12:54;;;;;;;24.02;17.57;;;;;;;4.11;95.54;99683.50;1679975;85;21077;-76
2021/11/19 04:15:27;;;;;;;26.68;18.10;;;;;;;4.11;95.54;99683.50;1680047;85;21018;-75
2021/11/19 04:17:54;;;;;;;26.48;17.12;;;;;;;4.14;95.72;99684.91;1679902;85;21070;-75
2021/11/19 04:20:21;;;;;;;21.57;15.50;;;;;;;4.14;95.72;99684.91;1652519;85;21100;-76
2021/11/19 04:22:48;;;;;;;31.17;18.25;;;;;;;4.15;95.77;99674.06;1653946;85;21347;-75
2021/11/19 04:25:17;;;;;;;23.35;18.45;;;;;;;4.17;95.72;99685.30;1682498;85;20958;-74
2021/11/19 04:27:44;;;;;;;26.50;17.42;;;;;;;4.16;95.66;99682.36;1653336;85;21784;-75
2021/11/19 04:30:17;;;;;;;32.28;20.72;;;;;;;4.15;95.64;99693.20;1679506;85;21012;-75
2021/11/19 04:32:45;;;;;;;28.47;17.37;;;;;;;4.10;95.65;99678.38;1653103;85;21573;-75
2021/11/19 04:35:12;;;;;;;34.53;19.32;;;;;;;4.09;95.75;99663.42;1652750;85;21030;-76
2021/11/19 04:37:39;;;;;;;23.90;16.93;;;;;;;4.16;96.03;99669.56;1652625;85;22278;-76
2021/11/19 04:40:09;;;;;;;20.77;15.60;;;;;;;4.16;96.03;99669.56;1680110;85;22767;-75
2021/11/19 04:42:35;;;;;;;22.55;16.57;;;;;;;4.20;95.76;99654.81;1653405;84;20987;-74
2021/11/19 04:45:05;;;;;;;28.98;19.32;;;;;;;4.20;95.76;99654.81;1680533;85;21062;-76
2021/11/19 04:47:32;;;;;;;25.57;17.12;;;;;;;4.17;95.64;99654.70;1676045;85;21533;-76
2021/11/19 04:49:59;;;;;;;24.82;17.02;;;;;;;4.16;95.70;99649.09;1680902;85;21078;-74
2021/11/19 04:52:27;;;;;;;26.77;17.67;;;;;;;4.16;95.77;99645.61;1680458;85;21087;-77
2021/11/19 04:54:55;;;;;;;22.35;17.45;;;;;;;4.16;95.87;99635.78;1674803;85;21534;-76
2021/11/19 04:57:21;;;;;;;28.00;18.00;;;;;;;4.27;95.86;99640.95;1680319;85;21078;-74
2021/11/19 04:59:48;;;;;;;23.98;17.70;;;;;;;4.27;95.86;99640.95;1680321;83;21538;-75
2021/11/19 05:02:17;;;;;;;26.27;17.75;;;;;;;4.31;95.66;99650.17;1654066;85;21518;-74
2021/11/19 05:04:54;;;;;;;31.77;18.77;;;;;;;4.30;95.51;99655.19;1654024;85;22029;-74
2021/11/19 05:07:21;;;;;;;24.37;17.95;;;;;;;4.33;95.53;99649.43;1680989;85;21114;-74
2021/11/19 05:09:48;;;;;;;23.60;18.10;;;;;;;4.33;95.53;99649.43;1652567;85;21593;-76
2021/11/19 05:12:27;;;;;;;26.55;18.23;;;;;;;4.35;95.65;99640.22;1680197;85;21531;-74
2021/11/19 05:14:54;;;;;;;29.07;19.73;;;;;;;4.38;95.65;99646.45;1652628;85;21017;-75
2021/11/19 05:17:23;;;;;;;26.33;18.05;;;;;;;4.39;95.43;99642.77;1652645;85;21030;-74
2021/11/19 05:19:51;;;;;;;31.02;18.25;;;;;;;4.37;95.34;99662.11;1656634;85;21101;-73
2021/11/19 05:22:18;;;;;;;27.05;19.15;;;;;;;4.37;95.50;99652.80;1652887;85;21109;-74
2021/11/19 05:24:45;;;;;;;20.77;15.75;;;;;;;4.37;95.50;99652.80;1626536;86;21433;-72
2021/11/19 05:27:13;;;;;;;29.87;20.10;;;;;;;4.37;95.56;99639.48;1657860;85;21094;-75
2021/11/19 05:29:40;;;;;;;31.12;20.27;;;;;;;4.43;95.55;99642.33;1680682;85;21141;-72
2021/11/19 05:32:07;;;;;;;29.35;18.35;;;;;;;4.48;95.56;99627.36;1652985;85;21527;-73
2021/11/19 05:34:34;;;;;;;29.77;19.52;;;;;;;4.48;95.56;99627.36;1631078;85;21126;-73
2021/11/19 05:37:00;;;;;;;25.88;18.73;;;;;;;4.51;95.43;99628.80;1652921;85;21538;-73
2021/11/19 05:39:26;;;;;;;28.25;19.60;;;;;;;4.52;95.18;99627.23;1680163;85;21027;-73
2021/11/19 05:41:54;;;;;;;32.42;19.73;;;;;;;4.53;95.12;99626.20;1654948;85;21373;-72
2021/11/19 05:44:23;;;;;;;26.30;20.82;;;;;;;4.54;95.02;99621.19;1654112;85;21453;-74
2021/11/19 05:46:57;;;;;;;29.57;19.90;;;;;;;4.53;94.99;99622.22;1675920;85;21090;-74
2021/11/19 05:49:24;;;;;;;30.02;20.12;;;;;;;4.56;95.09;99620.95;1680614;85;21029;-73
2021/11/19 05:51:55;;;;;;;23.65;18.15;;;;;;;4.61;95.06;99614.48;1709511;84;21054;-74
2021/11/19 05:54:24;;;;;;;28.00;20.45;;;;;;;4.63;94.91;99607.92;1663224;85;21192;-74
2021/11/19 05:56:52;;;;;;;26.77;19.67;;;;;;;4.64;94.70;99610.08;1680200;85;21037;-73
2021/11/19 05:59:18;;;;;;;27.87;21.85;;;;;;;4.64;94.59;99607.41;1678141;83;21102;-73
2021/11/19 06:01:56;;;;;;;34.48;19.02;;;;;;;4.64;94.62;99599.42;1604463;88;21111;-74
2021/11/19 06:04:24;;;;;;;31.30;20.88;;;;;;;4.67;94.75;99597.14;1672161;85;21114;-76
2021/11/19 06:06:53;;;;;;;31.95;19.37;;;;;;;4.74;94.52;99599.27;1667969;84;21339;-74
2021/11/19 06:09:31;;;;;;;33.65;23.07;;;;;;;4.78;94.55;99606.30;1671212;85;21038;-75
2021/11/19 06:12:18;;;;;;;33.88;21.15;;;;;;;4.80;94.39;99602.89;1649451;85;21058;-75
2021/11/19 06:14:49;;;;;;;31.30;22.22;;;;;;;4.81;94.25;99603.20;1621586;85;21043;-75
2021/11/19 06:17:25;;;;;;;30.62;22.32;;;;;;;4.80;94.12;99596.23;1672038;85;21520;-77
2021/11/19 06:19:57;;;;;;;42.85;25.60;;;;;;;4.77;94.18;99591.34;1672244;85;21102;-77
2021/11/19 06:22:32;;;;;;;42.80;24.02;;;;;;;4.75;94.35;99590.73;1648070;85;21039;-74
2021/11/19 06:25:00;;;;;;;40.73;23.27;;;;;;;4.78;94.54;99592.98;1647627;85;21083;-76
2021/11/19 06:27:31;;;;;;;36.05;23.32;;;;;;;4.82;94.66;99580.86;1669709;84;21015;-74
2021/11/19 06:29:58;;;;;;;45.23;27.00;;;;;;;4.86;94.69;99579.91;1692194;84;21240;-77
2021/11/19 06:32:25;;;;;;;38.98;26.42;;;;;;;4.90;94.75;99576.59;1670934;85;21485;-77
2021/11/19 06:34:53;;;;;;;41.70;26.02;;;;;;;4.94;94.76;99572.46;1673811;85;21050;-77
2021/11/19 06:37:21;;;;;;;45.98;24.77;;;;;;;4.97;94.62;99569.90;1673507;85;21069;-76
2021/11/19 06:39:49;;;;;;;46.98;26.52;;;;;;;4.96;94.54;99564.27;1672045;85;21504;-74
2021/11/19 06:42:21;;;;;;;42.43;26.07;;;;;;;4.97;94.62;99562.72;1607773;85;22219;-76
2021/11/19 06:44:49;;;;;;;37.50;24.23;;;;;;;5.00;94.78;99562.79;1633571;85;21195;-77
2021/11/19 06:47:26;;;;;;;40.20;23.87;;;;;;;5.03;94.76;99554.38;1670970;85;20995;-75
2021/11/19 06:50:13;;;;;;;36.58;24.27;;;;;;;5.03;94.82;99557.05;1643724;85;21487;-75
2021/11/19 06:52:58;;;;;;;40.63;26.20;;;;;;;5.03;94.76;99544.54;1647234;85;20987;-75
2021/11/19 06:55:44;;;;;;;45.48;29.02;;;;;;;4.96;94.71;99545.09;1647171;85;21054;-76
2021/11/19 06:58:19;;;;;;;42.17;27.37;;;;;;;4.96;94.90;99540.28;1671497;85;21114;-75
2021/11/19 07:00:46;;;;;;;41.08;28.80;;;;;;;4.93;94.92;99536.73;1680004;85;21063;-76
2021/11/19 07:03:13;;;;;;;38.42;23.00;;;;;;;4.93;95.12;99528.73;1680191;85;21049;-74
2021/11/19 07:05:39;;;;;;;33.08;22.98;;;;;;;4.96;95.28;99526.95;1680562;85;20966;-75
2021/11/19 07:08:08;;;;;;;41.42;26.73;;;;;;;4.95;95.36;99523.98;1652820;85;21102;-75
2021/11/19 07:10:36;;;;;;;34.15;24.85;;;;;;;4.97;95.49;99523.27;1652663;85;21933;-74
2021/11/19 07:13:03;;;;;;;39.60;23.55;;;;;;;4.97;95.48;99519.27;1652627;85;21697;-76
2021/11/19 07:15:32;;;;;;;36.30;25.02;;;;;;;4.94;95.40;99508.50;1652380;85;20992;-73
2021/11/19 07:17:58;;;;;;;37.38;25.55;;;;;;;4.91;95.42;99508.95;1652848;85;21071;-74
2021/11/19 07:20:27;;;;;;;35.10;24.45;;;;;;;4.88;95.57;99504.58;1680636;85;21041;-78
2021/11/19 07:22:56;;;;;;;32.33;23.57;;;;;;;4.84;95.71;99506.88;1653145;85;21162;-74
2021/11/19 07:25:25;;;;;;;28.45;21.57;;;;;;;4.83;95.98;99503.91;1653009;85;21054;-74
2021/11/19 07:27:55;;;;;;;43.92;23.90;;;;;;;4.83;96.14;99495.91;1680097;85;21027;-75
2021/11/19 07:30:29;;;;;;;33.83;24.63;;;;;;;4.82;96.31;99488.44;1652642;85;21607;-75
2021/11/19 07:33:14;;;;;;;33.73;21.27;;;;;;;4.82;96.42;99495.61;1680230;85;21058;-74
2021/11/19 07:35:44;;;;;;;27.13;21.42;;;;;;;4.79;96.45;99501.38;1675769;85;21255;-74
2021/11/19 07:38:28;;;;;;;30.62;20.82;;;;;;;4.79;96.60;99502.71;1654392;85;21057;-76
2021/11/19 07:41:13;;;;;;;29.48;20.52;;;;;;;4.77;96.77;99500.25;1676558;85;21535;-74
2021/11/19 07:43:51;;;;;;;32.73;21.02;;;;;;;4.77;97.03;99493.59;1652835;86;21159;-74
2021/11/19 07:46:24;;;;;;;28.38;21.60;;;;;;;4.80;97.17;99494.48;1646102;86;21068;-75
2021/11/19 07:48:53;;;;;;;30.90;21.48;;;;;;;4.81;97.14;99497.45;1659045;84;21471;-75
2021/11/19 07:51:25;;;;;;;27.77;19.65;;;;;;;4.78;97.07;99495.23;1709257;84;21053;-76
2021/11/19 07:53:52;;;;;;;29.65;23.12;;;;;;;4.77;97.10;99499.44;1680033;84;21021;-78
2021/11/19 07:56:29;;;;;;;26.95;19.37;;;;;;;4.76;97.20;99495.13;1706067;84;21002;-78
2021/11/19 07:58:52;;;;;;;28.15;20.55;;;;;;;4.76;97.37;99494.62;1678114;85;21579;-75
2021/11/19 08:01:18;;;;;;;33.40;20.62;;;;;;;4.78;97.55;99497.08;1679016;83;21046;-82
2021/11/19 08:03:47;;;;;;;23.38;17.73;;;;;;;4.83;97.63;99490.58;1671587;84;21026;-79
2021/11/19 08:06:13;;;;;;;30.20;21.90;;;;;;;4.84;97.51;99486.89;1691024;84;20947;-77
2021/11/19 08:08:41;;;;;;;33.25;22.50;;;;;;;4.82;97.56;99491.61;1680268;85;21075;-76
2021/11/19 08:11:11;;;;;;;27.20;20.12;;;;;;;4.83;97.48;99481.26;1678710;85;21064;-77
2021/11/19 08:13:38;;;;;;;34.98;21.73;;;;;;;4.83;97.46;99473.27;1652567;85;21116;-79
2021/11/19 08:16:06;;;;;;;29.45;19.55;;;;;;;4.81;97.37;99472.66;1681071;85;20951;-79
2021/11/19 08:18:40;;;;;;;28.12;21.65;;;;;;;4.83;97.51;99469.27;1648749;85;20935;-79
2021/11/19 08:21:07;;;;;;;35.17;22.70;;;;;;;4.88;97.61;99465.44;1678332;85;21034;-80
2021/11/19 08:23:39;;;;;;;28.85;21.52;;;;;;;4.94;97.68;99457.88;1651493;85;21118;-81
2021/11/19 08:26:10;;;;;;;24.35;20.57;;;;;;;4.98;97.54;99452.95;1651456;85;21627;-79
2021/11/19 08:28:37;;;;;;;31.15;21.95;;;;;;;4.98;97.42;99443.10;1652414;85;20987;-79
2021/11/19 08:31:07;;;;;;;27.30;21.45;;;;;;;4.92;97.03;99434.65;1679987;85;20971;-80
2021/11/19 08:33:33;;;;;;;33.28;21.80;;;;;;;4.86;97.06;99432.85;1680127;85;21089;-80
2021/11/19 08:36:00;;;;;;;24.20;19.85;;;;;;;4.82;97.10;99436.99;1680586;85;21093;-79
2021/11/19 08:38:26;;;;;;;29.92;21.82;;;;;;;4.82;97.25;99431.15;1653175;85;21077;-79
2021/11/19 08:40:55;;;;;;;25.30;20.30;;;;;;;4.81;97.25;99431.36;1653853;85;21320;-76
2021/11/19 08:43:25;;;;;;;25.27;20.10;;;;;;;4.78;97.26;99424.64;1651720;85;21050;-77
2021/11/19 08:45:53;;;;;;;29.45;22.15;;;;;;;4.73;97.45;99417.00;1651916;85;21058;-80
2021/11/19 08:48:22;;;;;;;26.77;20.45;;;;;;;4.73;97.59;99409.00;1681444;84;21018;-84
2021/11/19 08:50:48;;;;;;;24.87;21.07;;;;;;;4.72;97.70;99404.70;1681478;84;21073;-86
2021/11/19 08:53:15;;;;;;;27.70;21.48;;;;;;;4.74;97.95;99402.65;1652897;85;21094;-85
2021/11/19 08:55:46;;;;;;;32.75;23.65;;;;;;;4.75;98.00;99393.59;1683127;84;20896;-83
2021/11/19 08:58:17;;;;;;;28.92;20.97;;;;;;;4.77;98.01;99391.54;1655064;85;21085;-84
2021/11/19 09:00:46;;;;;;;34.48;21.93;;;;;;;4.82;98.25;99389.86;1681015;84;21078;-86
2021/11/19 09:03:12;;;;;;;28.20;21.87;;;;;;;4.83;98.23;99386.16;1652272;85;21058;-83
2021/11/19 09:05:42;;;;;;;26.60;21.25;;;;;;;4.89;98.41;99380.47;1679672;85;21006;-85
2021/11/19 09:08:13;;;;;;;28.38;21.02;;;;;;;4.92;98.36;99372.55;1686251;83;21058;-86
2021/11/19 09:10:40;;;;;;;28.17;23.02;;;;;;;4.90;98.14;99368.76;1686758;83;21110;-86
2021/11/19 09:13:07;;;;;;;32.20;23.83;;;;;;;4.86;97.93;99364.09;1686583;83;21053;-83
2021/11/19 09:15:34;;;;;;;29.23;23.65;;;;;;;4.81;98.01;99356.77;1661983;85;21089;-82
2021/11/19 09:18:21;;;;;;;29.30;24.90;;;;;;;4.81;98.26;99349.59;1680498;85;21062;-84
2021/11/19 09:21:11;;;;;;;27.87;20.37;;;;;;;4.75;98.46;99355.79;1680079;85;21515;-88
2021/11/19 09:23:44;;;;;;;28.10;21.90;;;;;;;4.74;98.76;99348.86;1680502;85;21014;-87
2021/11/19 09:26:15;;;;;;;30.37;21.12;;;;;;;4.77;98.85;99348.92;1679895;85;21043;-81
2021/11/19 09:28:45;;;;;;;24.50;18.95;;;;;;;4.78;98.98;99335.39;1679996;85;21822;-81
2021/11/19 09:31:13;;;;;;;28.83;23.12;;;;;;;4.81;99.01;99331.45;1680932;84;21551;-80
2021/11/19 09:33:40;;;;;;;29.72;23.00;;;;;;;4.82;99.12;99331.76;1680555;85;21140;-81
2021/11/19 09:36:06;;;;;;;29.55;23.83;;;;;;;4.87;99.34;99325.77;1680824;85;21085;-77
2021/11/19 09:38:34;;;;;;;31.60;26.57;;;;;;;4.92;99.49;99325.91;1680869;85;20981;-77
2021/11/19 09:41:25;;;;;;;26.97;22.13;;;;;;;4.92;99.37;99317.92;1653330;85;21539;-77
2021/11/19 09:44:31;;;;;;;35.13;27.80;;;;;;;4.93;99.36;99324.88;1652798;85;21090;-89
2021/11/19 09:47:19;;;;;;;31.68;24.02;;;;;;;4.90;99.40;99314.14;1648939;86;21045;-89
2021/11/19 09:50:24;;;;;;;29.20;24.00;;;;;;;4.91;99.51;99314.95;1685014;83;21072;-90
2021/11/19 09:53:29;;;;;;;30.15;23.52;;;;;;;4.92;99.75;99304.59;1670856;85;21115;-85
2021/11/19 09:56:31;;;;;;;29.63;22.07;;;;;;;4.94;99.84;99299.33;1652405;85;21031;-85
2021/11/19 09:59:38;;;;;;;30.88;25.12;;;;;;;4.95;100.00;99281.48;1668850;85;21072;-80
2021/11/19 10:02:55;;;;;;;32.33;23.87;;;;;;;4.94;100.00;99283.88;1652659;85;21042;-78
2021/11/19 10:05:45;;;;;;;32.45;25.40;;;;;;;4.89;100.00;99267.23;1679450;85;21046;-81
2021/11/19 10:08:20;;;;;;;27.58;22.80;;;;;;;4.91;100.00;99264.33;1651699;85;20951;-80
2021/11/19 10:11:27;;;;;;;28.23;21.95;;;;;;;4.97;100.00;99249.60;1652488;85;21795;-79
2021/11/19 10:14:06;;;;;;;30.30;21.37;;;;;;;5.02;100.00;99250.27;1679725;85;21793;-78
2021/11/19 10:17:10;;;;;;;29.77;21.57;;;;;;;5.04;100.00;99238.84;1680210;85;20992;-81
2021/11/19 10:19:51;;;;;;;28.12;22.35;;;;;;;5.00;100.00;99237.16;1652491;85;21725;-78
2021/11/19 10:22:34;;;;;;;26.20;20.35;;;;;;;4.99;100.00;99228.06;1642526;85;21563;-78
2021/11/19 10:25:19;;;;;;;28.35;20.62;;;;;;;5.02;100.00;99222.28;1652896;85;21683;-78
2021/11/19 10:27:53;;;;;;;30.82;23.92;;;;;;;5.08;100.00;99220.05;1680558;85;21675;-81
2021/11/19 10:30:42;;;;;;;32.88;26.17;;;;;;;5.11;100.00;99212.92;1653872;85;21530;-79
2021/11/19 10:33:28;;;;;;;29.57;23.65;;;;;;;5.12;100.00;99214.56;1680959;85;21034;-79
2021/11/19 10:36:06;;;;;;;42.33;27.70;;;;;;;5.17;100.00;99211.52;1679287;85;21030;-80
2021/11/19 10:39:14;;;;;;;26.70;22.58;;;;;;;5.16;100.00;99204.55;1651086;85;21158;-80
2021/11/19 10:42:18;;;;;;;26.62;23.05;;;;;;;5.17;100.00;99196.85;1651643;85;21066;-87
2021/11/19 10:45:22;;;;;;;25.02;20.37;;;;;;;5.19;100.00;99184.09;1652818;85;21534;-87
2021/11/19 10:48:12;;;;;;;26.33;19.45;;;;;;;5.20;100.00;99183.58;1681068;85;28232;-85
2021/11/19 10:50:59;;;;;;;23.35;20.35;;;;;;;5.24;100.00;99180.74;1652350;85;20966;-79
2021/11/19 10:53:48;;;;;;;27.73;21.90;;;;;;;5.27;100.00;99174.43;1673512;83;21759;-78
2021/11/19 10:56:45;;;;;;;26.57;20.45;;;;;;;5.31;100.00;99169.99;1681134;84;20951;-71
2021/11/19 10:59:39;;;;;;;27.40;21.75;;;;;;;5.33;100.00;99164.71;1674626;84;21092;-76
2021/11/19 11:02:13;;;;;;;27.22;19.75;;;;;;;5.39;100.00;99157.66;1679621;83;21072;-80
2021/11/19 11:04:52;;;;;;;27.13;21.93;;;;;;;5.43;100.00;99164.97;1652825;85;21084;-80
2021/11/19 11:07:36;;;;;;;28.50;23.10;;;;;;;5.45;100.00;99158.89;1679590;85;22042;-76
2021/11/19 11:10:14;;;;;;;27.93;21.45;;;;;;;5.51;100.00;99163.32;1651508;83;21324;-77
2021/11/19 11:12:51;;;;;;;26.62;19.60;;;;;;;5.57;100.00;99158.89;1679814;85;21595;-81
2021/11/19 11:15:31;;;;;;;30.17;22.73;;;;;;;5.59;100.00;99155.48;1653197;85;21546;-77
2021/11/19 11:18:16;;;;;;;24.02;19.77;;;;;;;5.60;100.00;99157.12;1653064;85;21568;-77
2021/11/19 11:20:58;;;;;;;26.62;20.75;;;;;;;5.62;100.00;99145.16;1679281;85;21295;-76
2021/11/19 11:23:45;;;;;;;27.45;21.80;;;;;;;5.64;100.00;99144.42;1678905;85;21001;-75
2021/11/19 11:26:17;;;;;;;30.17;22.77;;;;;;;5.70;100.00;99139.50;1652176;85;20972;-74
2021/11/19 11:29:00;;;;;;;38.42;23.25;;;;;;;5.75;100.00;99144.14;1680064;85;21617;-75
2021/11/19 11:31:50;;;;;;;30.70;22.02;;;;;;;5.77;100.00;99140.70;1651658;85;21014;-74
2021/11/19 11:34:44;;;;;;;28.45;22.22;;;;;;;5.77;100.00;99140.70;1680169;85;21155;-78
2021/11/19 11:37:19;;;;;;;;;;;;;;;5.77;100.00;99138.55;1654776;85;21010;-77
2021/11/19 11:40:08;;;;;;;26.73;23.05;;;;;;;5.79;100.00;99144.48;1679298;84;32531;-91
2021/11/19 11:42:46;;;;;;;33.98;21.93;;;;;;;5.81;100.00;99147.19;1680409;85;21027;-81
2021/11/19 11:45:44;;;;;;;25.97;20.68;;;;;;;5.87;100.00;99138.81;1675480;85;21646;-88
2021/11/19 11:48:54;;;;;;;33.63;24.27;;;;;;;5.89;100.00;99129.55;1680561;85;21602;-84
2021/11/19 11:51:38;;;;;;;30.27;23.45;;;;;;;5.91;100.00;99143.45;1647308;85;21050;-81
2021/11/19 11:54:27;;;;;;;37.30;29.27;;;;;;;5.93;100.00;99135.22;1679412;85;21048;-86
2021/11/19 11:57:39;;;;;;;30.52;24.57;;;;;;;5.92;100.00;99137.08;1679142;85;21065;-84